Time;durP1;ratioP1;P1;durP2;ratioP2;P2;SDS_P1;SDS_P2;PMS_P1;PMS_P2;Temp;Humidity;BMP_temperature;BMP_pressure;BME280_temperature;BME280_humidity;BME280_pressure;Samples;Min_cycle;Max_cycle;Signal;HPM_P1;HPM_P2
2022/08/24 04:01:33;;;;;;;8.30;5.07;;;17.60;99.90;;;;;;5491884;23;20491;-74
2022/08/24 04:04:00;;;;;;;5.83;4.80;;;17.60;99.90;;;;;;4992449;28;20459;-74
2022/08/24 04:06:27;;;;;;;7.13;5.50;;;17.60;99.90;;;;;;4992713;28;20466;-75
2022/08/24 04:08:55;;;;;;;5.30;4.80;;;17.50;99.90;;;;;;4992988;28;20451;-74
2022/08/24 04:11:23;;;;;;;6.43;4.70;;;17.50;99.90;;;;;;4992717;28;20491;-75
2022/08/24 04:13:55;;;;;;;7.00;5.30;;;17.50;99.90;;;;;;5015984;23;20603;-74
2022/08/24 04:16:23;;;;;;;8.30;5.23;;;17.50;99.90;;;;;;4992187;28;21030;-74
2022/08/24 04:18:51;;;;;;;5.80;5.20;;;17.40;99.90;;;;;;4992469;28;20943;-74
2022/08/24 04:21:20;;;;;;;8.60;5.10;;;17.40;99.90;;;;;;4992318;28;20837;-74
2022/08/24 04:23:47;;;;;;;6.30;5.53;;;17.40;99.90;;;;;;4992633;28;20472;-74
2022/08/24 04:26:15;;;;;;;5.70;5.10;;;17.40;99.90;;;;;;4992208;28;20472;-74
2022/08/24 04:28:42;;;;;;;7.90;6.10;;;17.40;99.90;;;;;;4992769;28;20482;-74
2022/08/24 04:31:09;;;;;;;6.10;5.30;;;17.30;99.90;;;;;;4992599;28;20839;-74
2022/08/24 04:33:37;;;;;;;7.30;5.30;;;17.30;99.90;;;;;;4992549;28;20472;-74
2022/08/24 04:36:09;;;;;;;7.83;5.13;;;17.30;99.90;;;;;;4992286;28;20486;-74
2022/08/24 04:38:37;;;;;;;6.30;5.70;;;17.20;99.90;;;;;;4992253;28;20456;-74
2022/08/24 04:41:05;;;;;;;7.30;5.60;;;17.30;99.90;;;;;;4992257;28;20459;-74
2022/08/24 04:43:32;;;;;;;6.40;5.20;;;17.30;99.90;;;;;;4991974;28;20865;-74
2022/08/24 04:45:59;;;;;;;6.07;5.40;;;17.20;99.90;;;;;;4991990;28;20465;-74
2022/08/24 04:48:26;;;;;;;6.10;4.97;;;17.20;99.90;;;;;;4992502;28;20460;-74
2022/08/24 04:50:53;;;;;;;7.37;5.60;;;17.20;99.90;;;;;;4992249;28;20835;-74
2022/08/24 04:53:21;;;;;;;7.77;5.40;;;17.10;99.90;;;;;;4994044;28;20505;-74
2022/08/24 04:55:49;;;;;;;7.93;5.63;;;17.10;99.90;;;;;;4995914;28;20463;-74
2022/08/24 04:58:18;;;;;;;7.90;5.63;;;17.10;99.90;;;;;;4995973;28;20879;-74
2022/08/24 05:00:46;;;;;;;5.93;5.30;;;17.10;99.90;;;;;;4995958;28;20460;-74
2022/08/24 05:03:13;;;;;;;6.33;5.30;;;17.10;99.90;;;;;;4995836;28;20486;-74
2022/08/24 05:05:41;;;;;;;7.00;4.90;;;17.00;99.90;;;;;;4996004;28;20465;-74
2022/08/24 05:08:09;;;;;;;6.23;5.63;;;17.00;99.90;;;;;;4996213;28;20464;-74
2022/08/24 05:10:39;;;;;;;7.30;5.53;;;17.00;99.90;;;;;;4995995;28;20915;-74
2022/08/24 05:13:06;;;;;;;8.83;5.90;;;17.00;99.90;;;;;;4995524;28;20490;-74
2022/08/24 05:15:34;;;;;;;7.20;6.00;;;17.00;99.90;;;;;;4995808;28;20495;-74
2022/08/24 05:18:01;;;;;;;5.93;5.30;;;17.00;99.90;;;;;;4995998;28;20606;-74
2022/08/24 05:20:28;;;;;;;9.93;5.73;;;17.00;99.90;;;;;;4995893;28;20448;-74
2022/08/24 05:22:55;;;;;;;8.77;5.77;;;17.00;99.90;;;;;;4995548;28;20466;-74
2022/08/24 05:25:22;;;;;;;7.73;5.40;;;16.90;99.90;;;;;;4995310;28;20944;-74
2022/08/24 05:27:51;;;;;;;8.00;5.50;;;16.90;99.90;;;;;;4995889;28;20473;-74
2022/08/24 05:30:18;;;;;;;7.30;5.27;;;16.90;99.90;;;;;;4995718;28;20510;-74
2022/08/24 05:32:45;;;;;;;8.97;5.07;;;16.90;99.90;;;;;;4995607;28;20491;-74
2022/08/24 05:35:12;;;;;;;5.83;5.03;;;17.00;99.90;;;;;;4995260;28;20475;-74
2022/08/24 05:37:40;;;;;;;7.97;5.07;;;17.00;99.90;;;;;;4995317;28;20463;-74
2022/08/24 05:40:11;;;;;;;6.17;5.20;;;17.00;99.90;;;;;;4995544;28;20547;-74
2022/08/24 05:42:39;;;;;;;6.67;6.00;;;17.00;99.90;;;;;;4995577;28;20512;-74
2022/08/24 05:45:09;;;;;;;8.20;5.40;;;17.10;99.90;;;;;;4995124;28;20491;-74
2022/08/24 05:47:36;;;;;;;9.77;5.93;;;17.10;99.90;;;;;;4995446;28;20444;-74
2022/08/24 05:50:04;;;;;;;7.23;6.20;;;17.10;99.90;;;;;;4995037;28;20467;-74
2022/08/24 05:52:31;;;;;;;7.50;5.10;;;17.10;99.90;;;;;;4994962;28;20904;-74
2022/08/24 05:54:59;;;;;;;5.67;4.73;;;17.10;99.90;;;;;;4994979;28;20480;-74
2022/08/24 05:57:30;;;;;;;7.40;5.20;;;17.10;99.90;;;;;;4994872;28;20459;-74
2022/08/24 05:59:57;;;;;;;6.80;5.10;;;17.10;99.90;;;;;;4994918;28;20812;-74
2022/08/24 06:02:26;;;;;;;5.83;5.23;;;17.10;99.90;;;;;;4994731;28;20952;-74
2022/08/24 06:04:53;;;;;;;7.50;5.10;;;17.10;99.90;;;;;;4993416;28;20845;-74
2022/08/24 06:07:19;;;;;;;10.13;5.77;;;17.20;99.90;;;;;;4994907;28;20466;-74
2022/08/24 06:09:46;;;;;;;6.67;6.07;;;17.20;99.90;;;;;;4994889;28;20459;-74
2022/08/24 06:12:13;;;;;;;10.37;5.50;;;17.20;99.90;;;;;;4994594;28;20999;-74
2022/08/24 06:14:40;;;;;;;6.67;5.70;;;17.30;99.90;;;;;;4994193;28;20847;-74
2022/08/24 06:17:08;;;;;;;5.60;5.10;;;17.30;99.90;;;;;;4994464;28;20522;-74
2022/08/24 06:19:37;;;;;;;9.43;5.93;;;17.40;99.90;;;;;;4994750;28;20962;-74
2022/08/24 06:22:04;;;;;;;6.03;5.33;;;17.30;99.90;;;;;;4995024;28;20794;-74
2022/08/24 06:27:22;;;;;;;6.03;5.40;;;17.40;99.90;;;;;;4994606;28;20507;-74
2022/08/24 06:29:51;;;;;;;8.30;5.60;;;17.40;99.90;;;;;;4994244;28;20456;-74
2022/08/24 06:32:17;;;;;;;6.63;6.03;;;17.40;99.90;;;;;;4994403;28;20502;-74
2022/08/24 06:34:46;;;;;;;8.60;5.77;;;17.50;99.90;;;;;;4994514;28;20475;-74
2022/08/24 06:37:12;;;;;;;5.80;4.97;;;17.50;99.90;;;;;;4994528;28;20464;-74
2022/08/24 06:39:39;;;;;;;9.43;5.60;;;17.60;99.90;;;;;;4994314;28;20462;-74
2022/08/24 06:42:06;;;;;;;5.47;4.83;;;17.60;99.90;;;;;;4993860;28;20547;-74
2022/08/24 06:44:34;;;;;;;8.73;6.77;;;17.70;99.90;;;;;;4994048;28;20487;-74
2022/08/24 06:47:00;;;;;;;7.10;5.60;;;17.70;99.90;;;;;;4994330;28;20460;-74
2022/08/24 06:49:27;;;;;;;10.20;4.60;;;17.80;99.90;;;;;;4994024;28;20962;-74
2022/08/24 06:51:56;;;;;;;6.80;4.50;;;17.80;99.90;;;;;;4993820;28;20491;-74
2022/08/24 06:54:22;;;;;;;5.10;4.60;;;17.80;99.90;;;;;;4993574;28;20530;-74
2022/08/24 06:56:49;;;;;;;4.00;3.70;;;17.90;99.90;;;;;;4994132;28;20936;-74
2022/08/24 06:59:17;;;;;;;5.93;4.43;;;17.90;99.90;;;;;;4994109;28;20460;-74
2022/08/24 07:01:44;;;;;;;4.53;3.87;;;18.00;99.90;;;;;;4993739;28;20460;-74
2022/08/24 07:04:11;;;;;;;5.50;4.10;;;18.00;99.90;;;;;;4993589;28;20479;-74
2022/08/24 07:06:38;;;;;;;5.47;3.47;;;18.10;99.90;;;;;;4993955;28;20460;-74
2022/08/24 07:09:06;;;;;;;5.97;4.37;;;18.20;99.90;;;;;;4993553;28;20889;-74
2022/08/24 07:11:33;;;;;;;8.30;4.60;;;18.30;99.90;;;;;;4993514;28;20967;-74
2022/08/24 07:14:00;;;;;;;5.33;4.43;;;18.30;99.90;;;;;;4993174;28;20499;-74
2022/08/24 07:16:28;;;;;;;5.17;3.60;;;18.40;99.90;;;;;;4993252;28;20459;-74
2022/08/24 07:18:55;;;;;;;5.60;4.13;;;18.40;99.90;;;;;;4993433;28;20464;-74
2022/08/24 07:21:24;;;;;;;7.23;4.07;;;18.50;99.90;;;;;;4993723;28;20491;-74
2022/08/24 07:23:54;;;;;;;5.20;4.57;;;18.60;99.90;;;;;;4993005;28;20898;-74
2022/08/24 07:26:24;;;;;;;5.07;3.80;;;18.70;99.90;;;;;;4993432;28;20487;-74
2022/08/24 07:28:51;;;;;;;4.50;3.63;;;18.70;99.90;;;;;;4993632;28;20456;-74
2022/08/24 07:31:19;;;;;;;4.40;3.53;;;18.90;99.90;;;;;;4993084;28;21010;-74
2022/08/24 07:33:46;;;;;;;4.60;3.50;;;18.90;99.90;;;;;;4992994;28;21022;-74
2022/08/24 07:36:13;;;;;;;5.10;3.70;;;19.10;99.90;;;;;;4992800;28;20460;-74
2022/08/24 07:38:40;;;;;;;4.50;3.80;;;19.20;99.90;;;;;;4992995;28;20468;-74
2022/08/24 07:41:07;;;;;;;5.03;3.77;;;19.30;99.90;;;;;;4993159;28;20960;-74
2022/08/24 07:43:35;;;;;;;5.90;3.77;;;19.50;99.90;;;;;;4992919;28;20988;-74
2022/08/24 07:46:05;;;;;;;3.70;3.40;;;19.60;99.90;;;;;;4992882;28;20460;-75
2022/08/24 07:48:32;;;;;;;3.60;3.30;;;19.80;99.90;;;;;;4993249;28;20475;-74
2022/08/24 07:50:58;;;;;;;4.40;3.30;;;20.00;99.90;;;;;;4992621;28;20551;-74
2022/08/24 07:53:25;;;;;;;4.00;3.50;;;20.20;99.90;;;;;;4992997;28;20496;-74
2022/08/24 07:55:54;;;;;;;4.17;3.40;;;20.40;99.90;;;;;;4992909;28;20467;-74
2022/08/24 07:58:23;;;;;;;3.83;3.53;;;20.50;99.90;;;;;;4992898;28;20475;-74
2022/08/24 08:00:51;;;;;;;3.83;3.30;;;20.60;99.90;;;;;;4992777;28;20452;-74
2022/08/24 08:03:18;;;;;;;3.50;3.20;;;20.80;99.90;;;;;;4992519;28;20472;-74
2022/08/24 08:05:45;;;;;;;6.43;3.83;;;20.80;99.90;;;;;;4992735;28;20466;-74
2022/08/24 08:08:12;;;;;;;5.67;3.20;;;20.90;99.90;;;;;;4992764;28;20470;-74
2022/08/24 08:10:39;;;;;;;4.30;3.20;;;21.00;99.90;;;;;;4992551;28;20982;-74
2022/08/24 08:13:06;;;;;;;3.50;3.00;;;21.10;99.90;;;;;;4992522;28;20483;-74
2022/08/24 08:15:33;;;;;;;3.00;2.50;;;21.20;99.90;;;;;;4992255;28;20978;-74
2022/08/24 08:18:01;;;;;;;3.43;3.13;;;21.40;99.90;;;;;;4992377;28;20459;-74
2022/08/24 08:20:28;;;;;;;5.20;3.10;;;21.50;99.90;;;;;;4992667;28;20464;-74
2022/08/24 08:25:41;;;;;;;4.30;2.90;;;21.80;99.90;;;;;;4992339;28;20816;-74
2022/08/24 08:28:08;;;;;;;6.17;3.07;;;22.00;99.90;;;;;;4991930;28;20546;-74
2022/08/24 08:30:35;;;;;;;3.43;3.00;;;22.20;99.90;;;;;;4992187;28;20955;-74
2022/08/24 08:33:03;;;;;;;3.03;2.80;;;22.30;99.90;;;;;;4992538;28;20495;-74
2022/08/24 08:35:30;;;;;;;3.80;2.83;;;22.50;99.90;;;;;;4992189;28;20460;-74
2022/08/24 08:37:57;;;;;;;2.90;2.60;;;22.90;99.90;;;;;;4992697;28;20460;-74
2022/08/24 08:40:38;;;;;;;3.53;2.97;;;22.90;99.90;;;;;;4992593;28;20456;-74
2022/08/24 08:43:10;;;;;;;3.67;2.80;;;23.20;99.90;;;;;;4992264;28;20488;-74
2022/08/24 08:45:59;;;;;;;2.60;2.40;;;23.10;99.90;;;;;;4992149;28;20526;-74
2022/08/24 08:49:03;;;;;;;2.67;2.30;;;23.30;99.90;;;;;;4992171;28;20944;-74
2022/08/24 08:52:06;;;;;;;4.57;2.10;;;23.60;99.90;;;;;;4992337;28;20534;-74
2022/08/24 08:54:48;;;;;;;5.67;2.40;;;23.80;99.90;;;;;;4991917;28;20893;-74
2022/08/24 08:57:32;;;;;;;2.97;1.90;;;24.00;99.90;;;;;;4992172;28;20960;-74
2022/08/24 09:00:09;;;;;;;3.13;2.33;;;24.20;99.90;;;;;;4992147;28;20447;-74
2022/08/24 09:03:12;;;;;;;2.37;2.10;;;24.50;99.90;;;;;;4992320;28;20459;-74
2022/08/24 09:06:18;;;;;;;3.90;1.67;;;24.80;99.90;;;;;;4982100;28;20471;-74
2022/08/24 09:09:12;;;;;;;4.77;2.20;;;25.10;99.90;;;;;;4992155;28;20930;-74
2022/08/24 09:11:50;;;;;;;6.03;2.63;;;25.30;99.90;;;;;;4991986;28;20471;-74
2022/08/24 09:14:49;;;;;;;2.20;1.80;;;25.50;99.90;;;;;;4991245;28;20505;-74
2022/08/24 09:17:32;;;;;;;2.63;2.10;;;25.70;99.90;;;;;;4992040;28;20459;-75
2022/08/24 09:20:16;;;;;;;2.33;2.13;;;25.90;99.90;;;;;;4992292;28;20543;-74
2022/08/24 09:22:47;;;;;;;3.70;2.30;;;26.10;99.90;;;;;;4992060;28;20440;-74
2022/08/24 09:25:23;;;;;;;3.40;2.00;;;26.30;99.90;;;;;;4991959;28;20479;-75
2022/08/24 09:28:05;;;;;;;3.13;1.93;;;26.40;99.90;;;;;;4992230;28;20494;-74
2022/08/24 09:30:45;;;;;;;2.37;2.17;;;26.90;99.90;;;;;;4991850;28;20460;-74
2022/08/24 09:33:20;;;;;;;6.23;2.33;;;27.20;99.90;;;;;;4991599;28;20491;-74
2022/08/24 09:36:06;;;;;;;8.23;2.27;;;27.40;99.90;;;;;;4991765;28;20447;-74
2022/08/24 09:38:59;;;;;;;3.30;1.90;;;27.70;99.90;;;;;;4992581;28;20498;-74
2022/08/24 09:41:51;;;;;;;2.20;2.00;;;27.90;99.90;;;;;;4995327;28;20470;-75
2022/08/24 09:44:53;;;;;;;3.27;2.10;;;28.10;99.90;;;;;;4967029;28;20478;-75
2022/08/24 09:48:02;;;;;;;6.23;2.30;;;28.20;99.90;;;;;;4995100;28;20495;-74
2022/08/24 09:50:51;;;;;;;2.80;2.00;;;28.20;99.90;;;;;;4995183;28;20868;-74
2022/08/24 09:53:44;;;;;;;2.80;1.70;;;28.20;99.90;;;;;;4994966;28;21062;-74
2022/08/24 09:56:24;;;;;;;4.03;2.00;;;28.30;99.90;;;;;;4994735;28;20452;-75
2022/08/24 09:59:08;;;;;;;3.40;1.80;;;28.60;99.90;;;;;;4994972;28;20513;-75
2022/08/24 10:01:43;;;;;;;2.47;1.57;;;28.80;99.90;;;;;;4994909;28;20456;-74
2022/08/24 10:04:19;;;;;;;2.10;1.90;;;28.90;99.90;;;;;;4994480;28;20570;-74
2022/08/24 10:06:56;;;;;;;2.20;1.83;;;29.00;99.90;;;;;;4995037;28;20491;-74
2022/08/24 10:09:55;;;;;;;3.20;1.90;;;29.20;99.90;;;;;;4994873;28;20459;-74
2022/08/24 10:12:38;;;;;;;2.70;1.67;;;29.30;99.90;;;;;;4993757;28;20503;-74
2022/08/24 10:15:08;;;;;;;7.63;2.53;;;29.50;99.90;;;;;;5017858;23;20512;-75
2022/08/24 10:17:46;;;;;;;3.53;2.27;;;29.60;99.90;;;;;;4994881;28;20436;-75
2022/08/24 10:20:22;;;;;;;2.40;2.17;;;29.70;99.90;;;;;;4994834;28;20532;-75
2022/08/24 10:23:16;;;;;;;2.20;2.00;;;30.00;99.90;;;;;;4994400;28;20961;-74
2022/08/24 10:25:51;;;;;;;4.10;2.73;;;30.10;99.90;;;;;;4975197;28;20455;-75
2022/08/24 10:28:46;;;;;;;2.40;2.10;;;30.30;99.90;;;;;;4975040;28;20451;-75
2022/08/24 10:31:20;;;;;;;2.30;2.10;;;30.30;99.90;;;;;;4975009;28;20448;-75
2022/08/24 10:34:03;;;;;;;3.33;2.20;;;30.60;99.90;;;;;;4974997;28;20497;-75
2022/08/24 10:36:49;;;;;;;2.20;2.00;;;30.70;99.90;;;;;;4974983;28;20441;-75
2022/08/24 10:39:40;;;;;;;3.30;2.10;;;31.10;99.90;;;;;;4975248;28;20460;-75
2022/08/24 10:46:09;;;;;;;4.47;2.20;;;31.30;99.50;;;;;;4974418;28;20464;-75
2022/08/24 10:49:05;;;;;;;3.67;2.10;;;31.30;99.80;;;;;;4974568;28;20898;-75
2022/08/24 10:51:43;;;;;;;2.83;1.97;;;31.80;98.80;;;;;;4973821;28;20467;-72
2022/08/24 10:54:12;;;;;;;3.60;2.07;;;31.80;99.40;;;;;;4974212;28;20496;-72
2022/08/24 10:56:42;;;;;;;2.50;1.70;;;32.10;98.00;;;;;;4974573;28;20609;-72
2022/08/24 10:59:20;;;;;;;2.10;1.90;;;32.10;97.60;;;;;;4974606;28;20491;-72
2022/08/24 11:02:06;;;;;;;2.37;2.17;;;32.10;98.60;;;;;;4974348;28;20437;-72
2022/08/24 11:07:17;;;;;;;2.77;1.67;;;32.30;96.50;;;;;;4957528;28;20464;-75
2022/08/24 11:09:50;;;;;;;2.10;1.90;;;32.30;96.40;;;;;;4974267;28;20492;-75
2022/08/24 11:12:23;;;;;;;2.30;1.90;;;32.70;95.90;;;;;;4974467;28;20488;-75
2022/08/24 11:14:52;;;;;;;3.83;1.70;;;33.00;93.70;;;;;;4973693;28;20500;-75
2022/08/24 11:17:21;;;;;;;2.70;1.90;;;33.00;93.90;;;;;;4974179;28;20777;-75
2022/08/24 11:19:49;;;;;;;3.00;2.13;;;33.20;91.80;;;;;;4974567;28;20456;-75
2022/08/24 11:22:31;;;;;;;2.73;2.03;;;33.20;91.80;;;;;;4974201;28;20552;-75
2022/08/24 11:25:01;;;;;;;2.93;2.20;;;33.00;92.10;;;;;;4973648;28;20484;-75
2022/08/24 11:27:34;;;;;;;2.30;2.10;;;32.90;91.70;;;;;;4973629;28;20453;-75
2022/08/24 11:30:09;;;;;;;2.73;1.77;;;32.80;91.50;;;;;;4974139;28;20568;-75
2022/08/24 11:32:43;;;;;;;2.03;1.80;;;32.80;90.80;;;;;;4974072;28;20447;-73
2022/08/24 11:35:19;;;;;;;2.53;1.73;;;32.80;90.90;;;;;;4973337;28;20500;-72
2022/08/24 11:37:47;;;;;;;2.60;1.93;;;32.90;90.80;;;;;;4973726;28;20456;-73
2022/08/24 11:40:16;;;;;;;2.43;1.50;;;32.90;91.10;;;;;;4973716;28;20475;-72
2022/08/24 11:42:56;;;;;;;2.60;1.67;;;32.90;91.80;;;;;;4973857;28;20465;-72
2022/08/24 11:45:32;;;;;;;2.60;1.80;;;32.90;90.80;;;;;;4973543;28;20850;-72
2022/08/24 11:48:14;;;;;;;3.20;2.47;;;33.10;90.30;;;;;;4973804;28;20539;-72
2022/08/24 11:50:48;;;;;;;2.30;2.00;;;33.00;90.60;;;;;;4973681;28;20475;-73
2022/08/24 11:53:28;;;;;;;2.23;1.90;;;33.10;89.70;;;;;;4973428;28;20830;-72
2022/08/24 11:56:11;;;;;;;5.37;1.60;;;33.00;89.60;;;;;;4973397;28;20447;-72
2022/08/24 11:58:50;;;;;;;4.37;2.10;;;32.90;89.00;;;;;;4973890;28;20464;-73
2022/08/24 12:01:24;;;;;;;3.67;2.00;;;32.90;89.80;;;;;;4973287;28;20461;-72
2022/08/24 12:04:11;;;;;;;2.10;1.90;;;33.00;87.30;;;;;;4973538;28;20472;-73
2022/08/24 12:06:47;;;;;;;2.30;2.10;;;33.20;87.00;;;;;;4973261;28;20444;-75
2022/08/24 12:09:23;;;;;;;6.60;3.07;;;33.20;88.70;;;;;;4973421;28;20440;-75
2022/08/24 12:11:57;;;;;;;3.87;1.73;;;33.00;89.50;;;;;;4973060;28;20824;-75
2022/08/24 12:14:31;;;;;;;2.20;1.97;;;32.90;88.90;;;;;;4972803;28;20508;-75
2022/08/24 12:17:04;;;;;;;3.10;1.73;;;32.70;88.10;;;;;;4973181;28;20475;-75
2022/08/24 12:19:34;;;;;;;3.47;1.80;;;32.70;88.90;;;;;;4972989;28;20460;-75
2022/08/24 12:22:04;;;;;;;3.37;1.87;;;32.80;87.20;;;;;;4973327;28;20452;-75
2022/08/24 12:24:34;;;;;;;2.20;2.00;;;32.70;87.40;;;;;;4972881;28;20476;-72
2022/08/24 12:27:06;;;;;;;1.90;1.63;;;32.70;85.20;;;;;;4973211;28;20452;-73
2022/08/24 12:29:41;;;;;;;6.40;2.17;;;32.70;86.40;;;;;;4972954;28;20441;-72
2022/08/24 12:32:11;;;;;;;5.00;2.50;;;32.60;86.10;;;;;;4972762;28;20904;-73
2022/08/24 12:34:47;;;;;;;2.80;2.00;;;32.60;88.70;;;;;;4972561;28;20595;-72
2022/08/24 12:37:19;;;;;;;2.70;2.00;;;32.50;84.90;;;;;;4973184;28;20460;-73
2022/08/24 12:39:53;;;;;;;1.97;1.77;;;32.30;84.80;;;;;;4972886;28;20867;-75
2022/08/24 12:42:34;;;;;;;3.60;2.10;;;32.20;84.80;;;;;;4972877;28;20948;-75
2022/08/24 12:45:06;;;;;;;3.20;2.20;;;32.30;86.50;;;;;;4972601;28;20890;-75
2022/08/24 12:47:39;;;;;;;3.80;2.10;;;32.30;86.20;;;;;;4972984;28;20544;-75
2022/08/24 12:50:13;;;;;;;2.17;1.80;;;32.30;87.20;;;;;;4972841;28;20956;-75
2022/08/24 12:53:13;;;;;;;2.27;1.73;;;32.30;85.40;;;;;;4973101;28;20462;-75
2022/08/24 12:55:59;;;;;;;3.37;2.20;;;32.40;85.70;;;;;;4972345;28;20480;-75
2022/08/24 12:58:54;;;;;;;3.53;2.27;;;32.40;86.70;;;;;;4972980;28;20467;-75
2022/08/24 13:01:23;;;;;;;2.77;2.00;;;32.40;84.80;;;;;;4973004;28;20459;-75
2022/08/24 13:04:21;;;;;;;4.27;1.93;;;32.20;84.70;;;;;;4972763;28;20476;-75
2022/08/24 13:06:52;;;;;;;2.00;1.70;;;32.20;84.60;;;;;;4972454;28;20961;-75
2022/08/24 13:09:38;;;;;;;2.50;1.97;;;32.20;86.20;;;;;;4972952;28;20528;-75
2022/08/24 13:12:48;;;;;;;2.30;1.80;;;32.20;85.60;;;;;;4972957;28;20460;-75
2022/08/24 13:15:42;;;;;;;2.90;2.20;;;32.20;86.30;;;;;;4913574;28;20587;-75
2022/08/24 13:18:51;;;;;;;2.17;1.97;;;32.10;86.80;;;;;;4975815;28;20464;-75
2022/08/24 13:21:50;;;;;;;2.43;2.07;;;32.10;87.30;;;;;;4976248;28;20456;-75
2022/08/24 13:24:53;;;;;;;4.70;2.20;;;32.10;86.50;;;;;;4975638;28;20980;-75
2022/08/24 13:28:00;;;;;;;3.43;2.20;;;32.10;88.00;;;;;;4976178;28;20813;-75
2022/08/24 13:30:59;;;;;;;3.20;2.27;;;32.20;85.70;;;;;;4975803;28;20460;-75
2022/08/24 13:33:31;;;;;;;2.50;2.30;;;32.20;87.10;;;;;;4975934;28;20483;-75
2022/08/24 13:36:03;;;;;;;2.13;1.87;;;32.20;86.80;;;;;;4975794;28;20450;-75
2022/08/24 13:38:49;;;;;;;5.00;2.00;;;32.20;87.20;;;;;;4976182;28;20437;-75
2022/08/24 13:41:42;;;;;;;3.20;1.90;;;32.20;86.20;;;;;;4976225;28;20584;-75
2022/08/24 13:44:17;;;;;;;2.30;2.10;;;32.20;84.40;;;;;;4975795;28;20468;-75
2022/08/24 13:46:52;;;;;;;4.37;2.10;;;32.30;82.80;;;;;;4975834;28;20439;-73
2022/08/24 13:49:31;;;;;;;2.67;2.17;;;32.20;84.80;;;;;;4975427;28;21012;-72
2022/08/24 13:52:12;;;;;;;3.87;2.10;;;32.20;86.60;;;;;;4975807;28;20535;-72
2022/08/24 13:54:48;;;;;;;2.47;2.00;;;32.20;86.00;;;;;;4975607;28;20522;-73
2022/08/24 13:57:31;;;;;;;2.53;1.90;;;32.20;85.70;;;;;;4975737;28;20456;-73
2022/08/24 14:00:31;;;;;;;4.27;2.07;;;32.10;86.50;;;;;;4975754;28;20461;-72
2022/08/24 14:03:08;;;;;;;14.57;5.33;;;32.10;86.20;;;;;;4975822;28;20459;-73
2022/08/24 14:05:42;;;;;;;2.20;2.00;;;32.00;85.50;;;;;;4975481;28;20480;-73
2022/08/24 14:08:31;;;;;;;2.70;1.70;;;32.00;85.00;;;;;;4975429;28;20449;-73
2022/08/24 14:11:07;;;;;;;5.73;1.70;;;32.20;83.00;;;;;;4975600;28;20468;-73
2022/08/24 14:13:49;;;;;;;15.60;3.97;;;32.20;83.60;;;;;;4975524;28;20871;-73
2022/08/24 14:19:25;;;;;;;5.93;2.00;;;32.30;84.40;;;;;;4975316;28;20419;-73
2022/08/24 14:21:59;;;;;;;3.50;2.10;;;32.30;86.40;;;;;;4975068;28;20460;-72
2022/08/24 14:24:34;;;;;;;2.07;1.83;;;32.30;84.70;;;;;;4974799;28;20487;-72
2022/08/24 14:27:34;;;;;;;4.03;2.37;;;32.30;86.20;;;;;;4974212;28;20464;-72
2022/08/24 14:30:36;;;;;;;7.50;2.53;;;32.30;86.50;;;;;;4975169;28;20463;-73
2022/08/24 14:33:13;;;;;;;5.83;3.00;;;32.30;85.60;;;;;;4969591;28;20475;-72
2022/08/24 14:35:45;;;;;;;49.80;18.87;;;32.30;86.70;;;;;;4974702;28;20502;-73
2022/08/24 14:38:31;;;;;;;2.87;1.83;;;32.30;84.50;;;;;;4974920;28;20459;-73
2022/08/24 14:41:21;;;;;;;2.27;1.77;;;32.30;85.40;;;;;;4975022;28;20536;-72
2022/08/24 14:44:05;;;;;;;2.73;2.10;;;32.30;84.90;;;;;;4974630;28;20481;-73
2022/08/24 14:46:40;;;;;;;2.07;1.87;;;32.30;87.30;;;;;;4974602;28;21028;-73
2022/08/24 14:49:20;;;;;;;2.60;2.07;;;32.30;87.10;;;;;;4974717;28;20475;-73
2022/08/24 14:51:59;;;;;;;2.30;1.80;;;32.30;84.50;;;;;;4974264;28;20472;-74
2022/08/24 14:54:36;;;;;;;3.63;1.90;;;32.40;86.40;;;;;;4974400;28;20506;-73
2022/08/24 14:57:19;;;;;;;2.47;2.17;;;32.40;87.20;;;;;;4974613;28;20456;-73
2022/08/24 15:00:02;;;;;;;2.23;2.03;;;32.40;90.30;;;;;;4975000;28;20822;-73
2022/08/24 15:03:15;;;;;;;1.90;1.70;;;32.40;89.20;;;;;;4974707;28;20472;-75
2022/08/24 15:05:51;;;;;;;2.10;1.90;;;32.40;87.70;;;;;;4974417;28;20499;-75
2022/08/24 15:08:32;;;;;;;6.60;2.10;;;32.40;88.40;;;;;;4974320;28;20460;-73
2022/08/24 15:11:06;;;;;;;2.47;1.80;;;32.50;89.60;;;;;;4974572;28;20459;-73
2022/08/24 15:13:39;;;;;;;2.03;1.80;;;32.40;89.20;;;;;;4973914;28;20449;-73
2022/08/24 15:16:11;;;;;;;2.80;2.60;;;32.40;88.80;;;;;;4974162;28;20476;-74
2022/08/24 15:18:42;;;;;;;2.83;1.90;;;32.40;90.00;;;;;;4973979;28;20457;-74
2022/08/24 15:21:23;;;;;;;4.20;2.87;;;32.40;89.00;;;;;;4974219;28;20449;-74
2022/08/24 15:24:15;;;;;;;2.63;2.20;;;32.50;90.20;;;;;;4973845;28;20480;-74
2022/08/24 15:26:59;;;;;;;2.83;2.10;;;32.50;90.30;;;;;;4974197;28;20876;-74
2022/08/24 15:29:30;;;;;;;4.00;2.07;;;32.50;89.80;;;;;;4973691;28;20503;-75
2022/08/24 15:32:04;;;;;;;2.20;1.90;;;32.60;90.40;;;;;;4974207;28;20503;-73
2022/08/24 15:34:44;;;;;;;2.70;2.10;;;32.60;90.30;;;;;;4973772;28;20491;-73
2022/08/24 15:37:14;;;;;;;2.20;1.63;;;32.70;90.50;;;;;;4973744;28;20851;-72
2022/08/24 15:39:41;;;;;;;3.83;2.27;;;32.70;90.70;;;;;;4973774;28;20484;-72
2022/08/24 15:42:14;;;;;;;2.47;1.60;;;32.70;91.00;;;;;;4973978;28;20535;-73
2022/08/24 15:44:44;;;;;;;2.03;1.87;;;32.70;90.80;;;;;;4973450;28;20479;-73
2022/08/24 15:47:21;;;;;;;2.93;2.30;;;32.90;90.90;;;;;;4973648;28;20471;-73
2022/08/24 15:49:51;;;;;;;1.73;1.63;;;33.00;90.60;;;;;;4973549;28;20515;-73
2022/08/24 15:52:47;;;;;;;3.37;1.90;;;33.00;90.00;;;;;;4973513;28;20456;-73
2022/08/24 15:55:31;;;;;;;2.70;1.90;;;33.10;90.10;;;;;;4973283;28;20496;-73
2022/08/24 15:57:59;;;;;;;2.07;1.80;;;33.10;90.00;;;;;;4973659;28;20433;-73
2022/08/24 16:03:23;;;;;;;2.30;1.83;;;33.20;90.30;;;;;;4973259;28;20429;-73
2022/08/24 16:05:52;;;;;;;4.70;1.70;;;33.10;90.00;;;;;;4972923;28;21035;-73
2022/08/24 16:08:23;;;;;;;4.10;2.10;;;33.10;90.30;;;;;;4973281;28;20457;-73
2022/08/24 16:10:56;;;;;;;2.47;1.90;;;33.00;90.10;;;;;;4973275;28;20513;-73
2022/08/24 16:13:29;;;;;;;3.10;1.80;;;32.90;90.40;;;;;;4973193;28;20447;-73
2022/08/24 16:16:01;;;;;;;3.50;1.93;;;32.90;90.30;;;;;;5019027;23;20503;-79
2022/08/24 16:18:46;;;;;;;2.20;2.00;;;32.80;90.50;;;;;;4998399;28;20440;-80
2022/08/24 16:21:16;;;;;;;4.67;2.10;;;32.70;90.50;;;;;;4998021;28;20466;-79
2022/08/24 16:23:54;;;;;;;4.17;3.30;;;32.60;91.00;;;;;;4998832;28;20483;-80
2022/08/24 16:26:25;;;;;;;2.80;1.93;;;32.40;91.10;;;;;;4978503;28;20452;-79
2022/08/24 16:28:53;;;;;;;2.10;1.90;;;32.30;91.30;;;;;;4978497;28;20445;-79
2022/08/24 16:31:51;;;;;;;2.60;2.00;;;32.20;91.40;;;;;;4978396;28;20465;-80
2022/08/24 16:34:23;;;;;;;5.87;1.83;;;32.00;91.10;;;;;;4937090;29;21136;-78
2022/08/24 16:36:50;;;;;;;3.10;2.07;;;31.90;91.10;;;;;;4971801;28;20471;-80
2022/08/24 16:39:18;;;;;;;1.93;1.80;;;31.80;91.10;;;;;;4979465;28;20519;-79
2022/08/24 16:41:45;;;;;;;2.60;1.50;;;31.60;91.60;;;;;;4978788;28;20512;-80
2022/08/24 16:44:12;;;;;;;2.20;2.00;;;31.50;91.20;;;;;;4978049;28;20542;-79
2022/08/24 16:46:40;;;;;;;3.00;2.37;;;31.40;91.40;;;;;;4978517;28;20474;-79
2022/08/24 16:49:07;;;;;;;2.20;2.00;;;31.30;91.60;;;;;;4980212;28;20456;-80
2022/08/24 16:51:34;;;;;;;3.63;2.37;;;31.20;91.60;;;;;;4982677;28;20459;-80
2022/08/24 16:54:01;;;;;;;2.83;1.90;;;31.20;91.60;;;;;;4982706;28;20915;-79
2022/08/24 16:56:30;;;;;;;4.10;1.90;;;31.10;92.30;;;;;;4983101;28;20587;-79
2022/08/24 16:58:58;;;;;;;2.10;1.77;;;31.00;92.50;;;;;;4983765;28;20471;-79
2022/08/24 17:01:25;;;;;;;3.40;1.80;;;30.90;92.60;;;;;;4984013;28;20452;-79
2022/08/24 17:03:52;;;;;;;1.90;1.70;;;30.90;92.70;;;;;;4983227;28;20832;-80
2022/08/24 17:06:19;;;;;;;3.77;2.17;;;30.90;92.60;;;;;;4984601;28;20457;-80
2022/08/24 17:08:47;;;;;;;2.77;1.80;;;30.80;92.90;;;;;;4985458;28;20468;-79
2022/08/24 17:11:14;;;;;;;5.20;2.07;;;30.70;92.70;;;;;;4985670;28;20467;-78
2022/08/24 17:13:42;;;;;;;4.57;2.27;;;30.60;93.30;;;;;;4992755;28;20456;-78
2022/08/24 17:16:11;;;;;;;2.77;1.90;;;30.60;93.20;;;;;;4992256;28;20555;-79
2022/08/24 17:18:38;;;;;;;4.00;2.33;;;30.60;92.70;;;;;;4993333;28;20484;-79
2022/08/24 17:21:05;;;;;;;2.67;2.33;;;30.50;93.70;;;;;;4991889;28;20457;-78
2022/08/24 17:23:32;;;;;;;3.37;3.07;;;30.40;93.80;;;;;;4994920;28;20504;-78
2022/08/24 17:26:00;;;;;;;2.37;2.17;;;30.30;93.60;;;;;;4994420;28;20469;-79
2022/08/24 17:28:28;;;;;;;4.97;2.20;;;30.20;93.80;;;;;;4994385;28;20460;-78
2022/08/24 17:30:56;;;;;;;2.73;2.40;;;30.20;94.10;;;;;;4987390;28;20511;-78
2022/08/24 17:33:23;;;;;;;2.60;2.20;;;30.10;93.90;;;;;;4985941;28;20452;-79
2022/08/24 17:35:53;;;;;;;2.60;2.03;;;30.00;94.40;;;;;;4980673;28;20575;-78
2022/08/24 17:38:19;;;;;;;2.40;2.13;;;29.80;93.80;;;;;;4980676;28;20464;-78
2022/08/24 17:40:46;;;;;;;2.90;2.00;;;29.80;94.10;;;;;;4981504;28;20474;-78
2022/08/24 17:43:13;;;;;;;2.40;2.00;;;29.70;94.00;;;;;;4980705;28;20959;-79